Wilson, OK (73463)

10:31 AM CST on February 21, 2017 (GMT -0600)
Rural Lone Grove | | Change Station

Elev 879 ft 34.16 °N, 97.31 °W | Updated 15 seconds ago

Clear
Clear
62.2 °F
Feels Like 62.2 °F
N
2.9
Wind Variable Wind from NW
Gusts 4.9 mph

Today
High -- | Low -- °F
--% Chance of Precip.
Yesterday
High -- | Low -- °F
Precip. -- in
Pressure 29.99 in
Visibility 10.0 miles
Clouds Clear
Dew Point 52 °F
Humidity 70%
Rainfall 0.00 in
Snow Depth Not available.
7:07 AM 6:19 PM
Waning Crescent, 24% visible
METAR K1F0 211615Z AUTO 34003KT 10SM CLR 16/08 A2999 RMK AO2
Pressure 29.99 in
Visibility 10.0 miles
Clouds Clear
Dew Point 52 °F
Humidity 70%
Rainfall 0.00 in
Snow Depth Not available.
7:07 AM 6:19 PM
Waning Crescent, 24% visible
METAR K1F0 211615Z AUTO 34003KT 10SM CLR 16/08 A2999 RMK AO2

Get Your Daily Forecast Email!

Thanks for signing up!

Be on the lookout for a verification email in your inbox.

You'll start receiving the daily forecast at 8 AM.

×

10-Day Weather Forecast

Almanac

Astronomy

Feb. 21, 2017 Rise Set
Actual Time
Civil Twilight
Nautical Twilight
Astronomical Twilight
Moon
Length of Visible Light
Length of Day
Tomorrow will be .
, % of the Moon is Illuminated

Today's Extremes

State Highs State Lows

Community

WunderPhotos

Upload Photos

1,962,540 photos uploaded!

WunderBlog® & News

Nearby

Air Quality

  Air Quality AQ Index Pollutant
Not available.

Snow Depth

Station Depth Elevation

Earthquake Activity

City Distance Mag. Time & Date
Minimum magnitude displayed is 2.5.

Coastal Water Temperatures

Place Temperature

Stations

Nearby Weather Stations

Station Location Temp. Windchill Dew Point Humidity Wind Precip. Elev Updated Type
                   

Watches & Warnings

There are currently no watches in effect.